createdAt,value
2018-07-13T00:02:16.475Z,60388.74
2018-07-13T00:04:44.638Z,60390.77
2018-07-13T00:07:12.830Z,60374.52
2018-07-13T00:09:40.988Z,60377.56
2018-07-13T00:12:09.146Z,60391.79
2018-07-13T00:14:37.335Z,60382.64
2018-07-13T00:17:05.574Z,60382.64
2018-07-13T00:19:33.730Z,60370.45
2018-07-13T00:22:01.922Z,60373.50
2018-07-13T00:24:30.094Z,60401.95
2018-07-13T00:26:58.271Z,60383.66
2018-07-13T00:29:26.435Z,60367.40
2018-07-13T00:31:54.606Z,60366.39
2018-07-13T00:34:22.782Z,60391.79
2018-07-13T00:36:50.955Z,60384.68
2018-07-13T00:39:19.118Z,60381.63
2018-07-13T00:41:47.282Z,60385.69
2018-07-13T00:44:15.443Z,60405.00
2018-07-13T00:46:43.623Z,60387.72
2018-07-13T00:49:11.798Z,60375.53
2018-07-13T00:51:39.959Z,60402.97
2018-07-13T00:54:08.159Z,60389.76
2018-07-13T00:56:36.318Z,60382.64
2018-07-13T00:59:04.484Z,60400.93
2018-07-13T01:01:32.650Z,60403.98
2018-07-13T01:04:00.838Z,60386.71
2018-07-13T01:06:29.010Z,60406.02
2018-07-13T01:08:57.195Z,60394.84
2018-07-13T01:11:25.378Z,60374.52
2018-07-13T01:13:53.533Z,60399.92
2018-07-13T01:16:21.707Z,60410.08
2018-07-13T01:18:49.902Z,60383.66
2018-07-13T01:21:18.094Z,60392.80
2018-07-13T01:23:46.288Z,60386.71
2018-07-13T01:26:14.501Z,60401.95
2018-07-13T01:28:42.683Z,60418.21
2018-07-13T01:31:10.859Z,60427.36
2018-07-13T01:33:39.043Z,60400.93
2018-07-13T01:36:07.210Z,60387.72
2018-07-13T01:38:35.390Z,60415.16
2018-07-13T01:41:03.643Z,60406.02
2018-07-13T01:43:31.778Z,60425.32
2018-07-13T01:45:59.950Z,60383.66
2018-07-13T01:48:28.147Z,60402.97
2018-07-13T01:50:56.318Z,60392.80
2018-07-13T01:53:24.498Z,60411.10
2018-07-13T01:55:52.663Z,60412.11
2018-07-13T01:58:20.840Z,60387.72
2018-07-13T02:00:49.014Z,60403.98
2018-07-13T02:03:17.206Z,60405.00
2018-07-13T02:05:45.858Z,60421.26
2018-07-13T02:08:14.036Z,60399.92
2018-07-13T02:10:42.243Z,60413.13
2018-07-13T02:13:10.438Z,60427.36
2018-07-13T02:15:38.654Z,60398.90
2018-07-13T02:18:06.839Z,60416.18
2018-07-13T02:20:35.021Z,60394.84
2018-07-13T02:23:03.199Z,60412.11
2018-07-13T02:25:31.378Z,60435.48
2018-07-13T02:27:59.590Z,60417.20
2018-07-13T02:30:27.771Z,60409.07
2018-07-13T02:32:56.174Z,60416.18
2018-07-13T02:35:24.342Z,60408.05
2018-07-13T02:37:52.525Z,60384.68
2018-07-13T02:40:20.715Z,60389.76
2018-07-13T02:42:48.878Z,60430.40
2018-07-13T02:45:17.058Z,60429.39
2018-07-13T02:47:45.226Z,60422.27
2018-07-13T02:50:13.402Z,60449.71
2018-07-13T02:52:41.573Z,60411.10
2018-07-13T02:55:09.771Z,60444.63
2018-07-13T02:57:37.938Z,60422.27
2018-07-13T03:00:06.136Z,60413.13
2018-07-13T03:02:34.339Z,60411.10
2018-07-13T03:05:02.515Z,60407.03
2018-07-13T03:07:30.695Z,60425.32
2018-07-13T03:09:58.879Z,60410.08
2018-07-13T03:12:27.059Z,60415.16
2018-07-13T03:14:55.231Z,60417.20
2018-07-13T03:17:23.435Z,60429.39
2018-07-13T03:19:51.611Z,60400.93
2018-07-13T03:22:19.803Z,60413.13
2018-07-13T03:24:47.979Z,60397.89
2018-07-13T03:27:16.168Z,60419.23
2018-07-13T03:29:44.346Z,60448.70
2018-07-13T03:32:12.539Z,60432.44
2018-07-13T03:34:40.724Z,60415.16
2018-07-13T03:37:08.903Z,60416.18
2018-07-13T03:39:37.090Z,60412.11
2018-07-13T03:42:05.274Z,60448.70
2018-07-13T03:44:33.454Z,60413.13
2018-07-13T03:47:01.628Z,60438.53
2018-07-13T03:49:29.815Z,60439.55
2018-07-13T03:51:57.987Z,60439.55
2018-07-13T03:54:26.189Z,60469.02
2018-07-13T03:56:54.526Z,60417.20
2018-07-13T03:59:22.931Z,60451.75
2018-07-13T04:01:51.115Z,60427.36
2018-07-13T04:04:19.555Z,60437.52
2018-07-13T04:06:47.741Z,60444.63
2018-07-13T04:09:15.916Z,60420.24
2018-07-13T04:11:44.108Z,60424.31
2018-07-13T04:14:12.278Z,60429.39
2018-07-13T04:16:40.467Z,60431.42
2018-07-13T04:19:08.662Z,60423.29
2018-07-13T04:21:36.878Z,60442.60
2018-07-13T04:24:05.218Z,60426.34
2018-07-13T04:26:33.441Z,60434.47
2018-07-13T04:29:01.660Z,60440.57
2018-07-13T04:31:29.830Z,60429.39
2018-07-13T04:33:58.022Z,60440.57
2018-07-13T04:36:26.210Z,60441.58
2018-07-13T04:38:54.378Z,60421.26
2018-07-13T04:41:22.547Z,60430.40
2018-07-13T04:43:50.774Z,60424.31
2018-07-13T04:46:18.969Z,60430.40
2018-07-13T04:48:47.375Z,60439.55
2018-07-13T04:51:15.583Z,60426.34
2018-07-13T04:53:43.787Z,60429.39
2018-07-13T04:56:12.019Z,60433.45
2018-07-13T04:58:40.251Z,60439.55
2018-07-13T05:01:08.458Z,60416.18
2018-07-13T05:03:36.660Z,60412.11
2018-07-13T05:06:05.192Z,60412.11
2018-07-13T05:08:33.368Z,60407.03
2018-07-13T05:11:01.563Z,60452.76
2018-07-13T05:13:29.730Z,60435.48
2018-07-13T05:15:57.946Z,60417.20
2018-07-13T05:18:26.136Z,60439.55
2018-07-13T05:20:54.335Z,60440.57
2018-07-13T05:23:22.590Z,60438.53
2018-07-13T05:25:50.782Z,60419.23
2018-07-13T05:28:19.154Z,60421.26
2018-07-13T05:30:47.363Z,60424.31
2018-07-13T05:33:15.579Z,60447.68
2018-07-13T05:35:43.771Z,60449.71
2018-07-13T05:38:11.987Z,60418.21
2018-07-13T05:40:40.212Z,60425.32
2018-07-13T05:43:08.416Z,60416.18
2018-07-13T05:45:36.612Z,60433.45
2018-07-13T05:48:04.818Z,60414.14
2018-07-13T05:50:33.027Z,60388.74
2018-07-13T05:53:01.247Z,60423.29
2018-07-13T05:55:29.451Z,60421.26
2018-07-13T05:57:57.652Z,60405.00
2018-07-13T06:00:25.870Z,60413.13
2018-07-13T06:02:54.126Z,60392.80
2018-07-13T06:05:22.382Z,60431.42
2018-07-13T06:07:50.571Z,60397.89
2018-07-13T06:10:18.795Z,60409.07
2018-07-13T06:12:47.006Z,60417.20
2018-07-13T06:15:15.210Z,60402.97
2018-07-13T06:17:43.395Z,60385.69
2018-07-13T06:20:12.111Z,60390.77
2018-07-13T06:22:40.387Z,60419.23
2018-07-13T06:25:09.180Z,60413.13
2018-07-13T06:27:37.363Z,60393.82
2018-07-13T06:30:06.632Z,60416.18
2018-07-13T06:32:34.803Z,60416.18
2018-07-13T06:35:03.302Z,60426.34
2018-07-13T06:37:31.540Z,60403.98
2018-07-13T06:39:59.738Z,60393.82
2018-07-13T06:42:27.939Z,60415.16
2018-07-13T06:44:56.177Z,60397.89
2018-07-13T06:47:24.303Z,60399.92
2018-07-13T06:49:52.495Z,60372.48
2018-07-13T06:52:20.743Z,60394.84
2018-07-13T06:54:48.931Z,60402.97
2018-07-13T06:57:28.238Z,60388.74
2018-07-13T06:59:56.451Z,60398.90
2018-07-13T07:02:35.894Z,60387.72
2018-07-13T07:06:15.190Z,60384.68
2018-07-13T07:08:46.335Z,60385.69
2018-07-13T07:11:14.681Z,60407.03
2018-07-13T07:13:43.847Z,60393.82
2018-07-13T07:16:12.082Z,60409.07
2018-07-13T07:18:40.266Z,60384.68
2018-07-13T07:21:08.663Z,60394.84
2018-07-13T07:23:36.916Z,60375.53
2018-07-13T07:26:05.606Z,60400.93
2018-07-13T07:28:33.799Z,60380.61
2018-07-13T07:31:02.675Z,60379.59
2018-07-13T07:33:30.842Z,60375.53
2018-07-13T07:35:59.014Z,60380.61
2018-07-13T07:38:27.212Z,60365.37
2018-07-13T07:40:55.396Z,60394.84
2018-07-13T07:43:23.578Z,60392.80
2018-07-13T07:45:51.775Z,60380.61
2018-07-13T07:48:19.935Z,60372.48
2018-07-13T07:50:48.110Z,60387.72
2018-07-13T07:53:16.298Z,60365.37
2018-07-13T07:55:44.467Z,60374.52
2018-07-13T07:58:12.676Z,60398.90
2018-07-13T08:00:40.838Z,60377.56
2018-07-13T08:03:09.062Z,60350.12
2018-07-13T08:05:37.227Z,60381.63
2018-07-13T08:08:05.660Z,60356.22
2018-07-13T08:10:33.847Z,60367.40
2018-07-13T08:13:02.434Z,60384.68
2018-07-13T08:15:30.602Z,60361.30
2018-07-13T08:17:58.758Z,60369.43
2018-07-13T08:20:30.454Z,60352.16
2018-07-13T08:23:00.235Z,60367.40
2018-07-13T08:25:28.626Z,60331.84
2018-07-13T08:28:01.195Z,60343.01
2018-07-13T08:30:34.275Z,60344.03
2018-07-13T08:33:02.480Z,60358.25
2018-07-13T08:35:30.690Z,60361.30
2018-07-13T08:37:58.947Z,60336.91
2018-07-13T08:40:27.134Z,60342.00
2018-07-13T08:42:55.350Z,60340.98
2018-07-13T08:45:23.715Z,60333.87
2018-07-13T08:47:51.938Z,60336.91
2018-07-13T08:50:20.215Z,60328.79
2018-07-13T08:52:48.378Z,60343.01
2018-07-13T08:55:17.083Z,60330.82
2018-07-13T08:57:47.488Z,60331.84
2018-07-13T09:00:16.413Z,60326.75
2018-07-13T09:02:44.664Z,60321.67
2018-07-13T09:05:15.225Z,60330.82
2018-07-13T09:07:43.722Z,60339.96
2018-07-13T09:10:12.847Z,60328.79
2018-07-13T09:12:41.794Z,60308.46
2018-07-13T09:15:11.722Z,60315.57
2018-07-13T09:17:40.087Z,60304.40
2018-07-13T09:20:10.004Z,60309.48
2018-07-13T09:22:38.466Z,60310.50
2018-07-13T09:25:07.934Z,60309.48
2018-07-13T09:27:36.348Z,60300.34
2018-07-13T09:30:05.267Z,60284.07
2018-07-13T09:32:33.761Z,60303.38
2018-07-13T09:35:02.336Z,60294.24
2018-07-13T09:37:30.786Z,60300.34
2018-07-13T09:39:58.958Z,60303.38
2018-07-13T09:42:27.158Z,60300.34
2018-07-13T09:44:55.359Z,60305.41
2018-07-13T09:47:23.598Z,60286.11
2018-07-13T09:49:51.770Z,60286.11
2018-07-13T09:52:20.073Z,60297.29
2018-07-13T09:54:48.267Z,60275.95
2018-07-13T09:57:16.457Z,60282.04
2018-07-13T09:59:44.643Z,60261.72
2018-07-13T10:02:12.871Z,60276.96
2018-07-13T10:04:41.246Z,60271.88
2018-07-13T10:07:09.478Z,60274.93
2018-07-13T10:09:37.914Z,60261.72
2018-07-13T10:12:06.322Z,60259.69
2018-07-13T10:14:35.015Z,60247.49
2018-07-13T10:17:03.382Z,60248.51
2018-07-13T10:19:31.873Z,60241.40
2018-07-13T10:22:00.481Z,60226.16
2018-07-13T10:24:28.874Z,60212.95
2018-07-13T10:26:57.422Z,60200.75
2018-07-13T10:29:33.387Z,60199.74
2018-07-13T10:32:02.831Z,60186.52
2018-07-13T10:34:31.627Z,60169.25
2018-07-13T10:37:02.534Z,60200.75
2018-07-13T10:39:31.438Z,60195.67
2018-07-13T10:41:59.627Z,60178.40
2018-07-13T10:44:28.275Z,60188.56
2018-07-13T10:46:56.884Z,60182.46
2018-07-13T10:49:25.379Z,60192.62
2018-07-13T10:51:53.956Z,60157.06
2018-07-13T10:54:22.630Z,60182.46
2018-07-13T10:56:51.021Z,60189.57
2018-07-13T10:59:19.158Z,60168.23
2018-07-13T11:01:47.349Z,60162.14
2018-07-13T11:04:15.526Z,60148.93
2018-07-13T11:06:44.618Z,60155.03
2018-07-13T11:09:12.918Z,60178.40
2018-07-13T11:11:41.080Z,60190.59
2018-07-13T11:14:09.551Z,60148.93
2018-07-13T11:16:37.883Z,60148.93
2018-07-13T11:19:06.056Z,60164.17
2018-07-13T11:21:34.241Z,60156.04
2018-07-13T11:24:02.566Z,60148.93
2018-07-13T11:26:30.886Z,60157.06
2018-07-13T11:28:59.232Z,60137.75
2018-07-13T11:31:27.411Z,60151.98
2018-07-13T11:33:55.762Z,60133.69
2018-07-13T11:36:23.947Z,60133.69
2018-07-13T11:38:52.147Z,60124.54
2018-07-13T11:41:20.632Z,60159.09
2018-07-13T11:43:49.633Z,60151.98
2018-07-13T11:46:17.959Z,60162.14
2018-07-13T11:48:46.275Z,60157.06
2018-07-13T11:51:14.793Z,60167.22
2018-07-13T11:53:43.171Z,60155.03
2018-07-13T11:56:11.575Z,60155.03
2018-07-13T11:58:40.028Z,60143.85
2018-07-13T12:01:08.519Z,60150.96
2018-07-13T12:03:37.014Z,60142.83
2018-07-13T12:06:06.018Z,60140.80
2018-07-13T12:08:34.499Z,60145.88
2018-07-13T12:11:02.892Z,60143.85
2018-07-13T12:13:31.059Z,60131.66
2018-07-13T12:15:59.304Z,60138.77
2018-07-13T12:18:27.624Z,60137.75
2018-07-13T12:20:55.867Z,60132.67
2018-07-13T12:23:24.029Z,60127.59
2018-07-13T12:25:52.255Z,60132.67
2018-07-13T12:28:20.608Z,60149.95
2018-07-13T12:30:48.888Z,60141.82
2018-07-13T12:33:17.299Z,60149.95
2018-07-13T12:35:45.734Z,60144.87
2018-07-13T12:38:14.081Z,60142.83
2018-07-13T12:40:42.433Z,60141.82
2018-07-13T12:43:10.703Z,60164.17
2018-07-13T12:45:39.309Z,60161.12
2018-07-13T12:48:07.820Z,60140.80
2018-07-13T12:50:36.200Z,60139.79
2018-07-13T12:53:04.476Z,60154.01
2018-07-13T12:55:32.750Z,60149.95
2018-07-13T12:58:01.048Z,60159.09
2018-07-13T13:00:29.270Z,60147.91
2018-07-13T13:02:57.647Z,60162.14
2018-07-13T13:05:26.989Z,60162.14
2018-07-13T13:07:55.236Z,60144.87
2018-07-13T13:10:23.625Z,60155.03
2018-07-13T13:12:52.159Z,60150.96
2018-07-13T13:15:20.463Z,60155.03
2018-07-13T13:17:48.678Z,60170.27
2018-07-13T13:20:16.870Z,60166.20
2018-07-13T13:22:45.031Z,60168.23
2018-07-13T13:25:13.216Z,60151.98
2018-07-13T13:27:41.374Z,60144.87
2018-07-13T13:30:09.746Z,60142.83
2018-07-13T13:32:37.923Z,60159.09
2018-07-13T13:35:06.127Z,60154.01
2018-07-13T13:37:34.290Z,60174.33
2018-07-13T13:40:02.491Z,60164.17
2018-07-13T13:42:30.669Z,60161.12
2018-07-13T13:44:58.859Z,60159.09
2018-07-13T13:47:27.154Z,60158.07
2018-07-13T13:49:55.461Z,60158.07
2018-07-13T13:52:23.725Z,60174.33
2018-07-13T13:54:52.111Z,60183.48
2018-07-13T13:57:20.651Z,60164.17
2018-07-13T13:59:49.138Z,60174.33
2018-07-13T14:02:17.448Z,60177.38
2018-07-13T14:04:45.623Z,60153.00
2018-07-13T14:07:14.051Z,60167.22
2018-07-13T14:09:42.224Z,60148.93
2018-07-13T14:12:10.493Z,60160.11
2018-07-13T14:14:38.658Z,60180.43
2018-07-13T14:17:06.794Z,60158.07
2018-07-13T14:19:35.016Z,60187.54
2018-07-13T14:22:03.363Z,60183.48
2018-07-13T14:24:31.582Z,60170.27
2018-07-13T14:26:59.883Z,60170.27
2018-07-13T14:29:28.060Z,60151.98
2018-07-13T14:31:56.511Z,60172.30
2018-07-13T14:34:24.685Z,60180.43
2018-07-13T14:36:52.852Z,60180.43
2018-07-13T14:39:21.075Z,60172.30
2018-07-13T14:41:49.455Z,60178.40
2018-07-13T14:44:17.629Z,60174.33
2018-07-13T14:46:45.819Z,60175.35
2018-07-13T14:49:14.019Z,60160.11
2018-07-13T14:51:42.207Z,60164.17
2018-07-13T14:54:10.391Z,60176.37
2018-07-13T14:56:38.573Z,60169.25
2018-07-13T14:59:06.830Z,60188.56
2018-07-13T15:01:35.033Z,60186.52
2018-07-13T15:04:03.346Z,60167.22
2018-07-13T15:06:31.518Z,60183.48
2018-07-13T15:08:59.790Z,60188.56
2018-07-13T15:11:28.019Z,60191.61
2018-07-13T15:13:56.193Z,60179.41
2018-07-13T15:16:24.381Z,60190.59
2018-07-13T15:18:52.523Z,60177.38
2018-07-13T15:21:20.699Z,60174.33
2018-07-13T15:23:48.871Z,60180.43
2018-07-13T15:26:17.051Z,60184.49
2018-07-13T15:28:45.226Z,60193.64
2018-07-13T15:31:13.412Z,60207.86
2018-07-13T15:33:41.583Z,60186.52
2018-07-13T15:36:09.773Z,60205.83
2018-07-13T15:38:37.946Z,60192.62
2018-07-13T15:41:06.208Z,60202.79
2018-07-13T15:43:34.398Z,60215.99
2018-07-13T15:46:02.586Z,60209.90
2018-07-13T15:48:30.956Z,60211.93
2018-07-13T15:50:59.138Z,60194.66
2018-07-13T15:53:28.022Z,60168.23
2018-07-13T15:55:57.847Z,60199.74
2018-07-13T15:58:27.442Z,60187.54
2018-07-13T16:00:55.683Z,60212.95
2018-07-13T16:03:24.083Z,60191.61
2018-07-13T16:05:52.442Z,60203.80
2018-07-13T16:08:20.839Z,60195.67
2018-07-13T16:10:49.101Z,60196.69
2018-07-13T16:13:17.206Z,60188.56
2018-07-13T16:15:45.402Z,60176.37
2018-07-13T16:18:13.717Z,60195.67
2018-07-13T16:20:44.369Z,60195.67
2018-07-13T16:23:12.559Z,60190.59
2018-07-13T16:25:41.063Z,60199.74
2018-07-13T16:28:09.935Z,60208.88
2018-07-13T16:30:39.404Z,60199.74
2018-07-13T16:33:07.890Z,60206.85
2018-07-13T16:35:36.621Z,60213.96
2018-07-13T16:38:04.880Z,60211.93
2018-07-13T16:40:33.538Z,60211.93
2018-07-13T16:43:02.575Z,60217.01
2018-07-13T16:45:31.259Z,60207.86
2018-07-13T16:48:00.392Z,60203.80
2018-07-13T16:50:28.886Z,60217.01
2018-07-13T16:52:57.106Z,60197.70
2018-07-13T16:55:25.639Z,60207.86
2018-07-13T16:57:53.803Z,60215.99
2018-07-13T17:00:22.167Z,60221.07
2018-07-13T17:02:50.652Z,60199.74
2018-07-13T17:05:18.893Z,60218.03
2018-07-13T17:07:47.265Z,60218.03
2018-07-13T17:10:15.911Z,60221.07
2018-07-13T17:12:44.275Z,60198.72
2018-07-13T17:15:13.131Z,60198.72
2018-07-13T17:17:41.402Z,60214.98
2018-07-13T17:20:09.715Z,60210.91
2018-07-13T17:22:38.055Z,60200.75
2018-07-13T17:25:06.481Z,60213.96
2018-07-13T17:27:34.818Z,60228.19
2018-07-13T17:30:03.031Z,60214.98
2018-07-13T17:32:31.199Z,60230.22
2018-07-13T17:34:59.408Z,60222.09
2018-07-13T17:37:27.566Z,60226.16
2018-07-13T17:39:55.754Z,60215.99
2018-07-13T17:42:23.976Z,60226.16
2018-07-13T17:44:52.310Z,60219.04
2018-07-13T17:47:20.564Z,60220.06
2018-07-13T17:49:48.750Z,60202.79
2018-07-13T17:52:17.190Z,60202.79
2018-07-13T17:54:45.466Z,60219.04
2018-07-13T17:57:13.889Z,60214.98
2018-07-13T17:59:42.206Z,60219.04
2018-07-13T18:02:10.402Z,60209.90
2018-07-13T18:04:38.607Z,60212.95
2018-07-13T18:07:06.810Z,60220.06
2018-07-13T18:09:34.986Z,60230.22
2018-07-13T18:12:03.169Z,60227.17
2018-07-13T18:14:31.353Z,60223.11
2018-07-13T18:16:59.559Z,60215.99
2018-07-13T18:19:27.749Z,60233.27
2018-07-13T18:21:55.943Z,60238.35
2018-07-13T18:24:24.154Z,60208.88
2018-07-13T18:26:52.350Z,60217.01
2018-07-13T18:29:20.534Z,60213.96
2018-07-13T18:31:48.719Z,60244.45
2018-07-13T18:34:16.907Z,60227.17
2018-07-13T18:36:45.142Z,60230.22
2018-07-13T18:39:13.382Z,60227.17
2018-07-13T18:41:41.650Z,60224.12
2018-07-13T18:44:09.895Z,60239.36
2018-07-13T18:46:38.107Z,60224.12
2018-07-13T18:49:06.297Z,60226.16
2018-07-13T18:51:34.628Z,60237.33
2018-07-13T18:54:02.834Z,60223.11
2018-07-13T18:56:31.193Z,60251.56
2018-07-13T18:58:59.439Z,60236.32
2018-07-13T19:01:27.699Z,60227.17
2018-07-13T19:03:55.898Z,60245.46
2018-07-13T19:06:24.106Z,60255.63
2018-07-13T19:08:52.342Z,60232.25
2018-07-13T19:11:20.566Z,60239.36
2018-07-13T19:13:48.909Z,60238.35
2018-07-13T19:16:17.090Z,60245.46
2018-07-13T19:18:45.319Z,60256.64
2018-07-13T19:21:13.582Z,60260.71
2018-07-13T19:23:41.838Z,60236.32
2018-07-13T19:26:10.043Z,60253.59
2018-07-13T19:28:38.516Z,60255.63
2018-07-13T19:31:06.867Z,60273.91
2018-07-13T19:33:35.324Z,60260.71
2018-07-13T19:36:03.555Z,60265.79
2018-07-13T19:38:31.730Z,60268.83
2018-07-13T19:40:59.955Z,60273.91
2018-07-13T19:43:28.253Z,60306.43
2018-07-13T19:45:56.480Z,60250.54
2018-07-13T19:48:24.893Z,60284.07
2018-07-13T19:50:53.115Z,60272.90
2018-07-13T19:53:21.318Z,60273.91
2018-07-13T19:55:49.561Z,60260.71
2018-07-13T19:58:17.815Z,60268.83
2018-07-13T20:00:46.222Z,60275.95
2018-07-13T20:03:14.495Z,60269.85
2018-07-13T20:05:42.765Z,60271.88
2018-07-13T20:08:11.008Z,60284.07
2018-07-13T20:10:39.290Z,60270.87
2018-07-13T20:13:07.510Z,60286.11
2018-07-13T20:15:35.723Z,60290.17
2018-07-13T20:18:03.998Z,60300.34
2018-07-13T20:20:32.288Z,60274.93
2018-07-13T20:23:00.927Z,60290.17
2018-07-13T20:25:29.350Z,60315.57
2018-07-13T20:27:57.527Z,60298.30
2018-07-13T20:30:25.711Z,60289.16
2018-07-13T20:32:53.931Z,60305.41
2018-07-13T20:35:22.096Z,60297.29
2018-07-13T20:37:50.573Z,60283.06
2018-07-13T20:40:18.939Z,60292.21
2018-07-13T20:42:47.116Z,60290.17
2018-07-13T20:45:15.367Z,60296.27
2018-07-13T20:47:43.646Z,60294.24
2018-07-13T20:50:11.770Z,60299.32
2018-07-13T20:52:39.939Z,60310.50
2018-07-13T20:55:08.130Z,60310.50
2018-07-13T20:57:36.317Z,60317.61
2018-07-13T21:00:05.219Z,60323.71
2018-07-13T21:02:33.387Z,60314.56
2018-07-13T21:05:01.810Z,60307.45
2018-07-13T21:07:29.967Z,60310.50
2018-07-13T21:09:58.151Z,60297.29
2018-07-13T21:12:26.314Z,60308.46
2018-07-13T21:14:54.515Z,60295.25
2018-07-13T21:17:22.797Z,60326.75
2018-07-13T21:19:50.984Z,60321.67
2018-07-13T21:22:19.179Z,60319.64
2018-07-13T21:24:47.347Z,60313.54
2018-07-13T21:27:15.605Z,60317.61
2018-07-13T21:29:43.682Z,60314.56
2018-07-13T21:32:11.858Z,60325.74
2018-07-13T21:34:40.031Z,60303.38
2018-07-13T21:37:08.210Z,60320.66
2018-07-13T21:39:36.391Z,60320.66
2018-07-13T21:42:04.562Z,60316.59
2018-07-13T21:44:32.746Z,60292.21
2018-07-13T21:47:00.923Z,60327.77
2018-07-13T21:49:30.579Z,60322.69
2018-07-13T21:51:58.768Z,60337.93
2018-07-13T21:54:26.942Z,60327.77
2018-07-13T21:56:55.134Z,60319.64
2018-07-13T21:59:23.291Z,60333.87
2018-07-13T22:01:51.548Z,60346.06
2018-07-13T22:04:19.637Z,60326.75
2018-07-13T22:06:47.812Z,60324.72
2018-07-13T22:09:15.971Z,60340.98
2018-07-13T22:11:44.155Z,60346.06
2018-07-13T22:14:12.334Z,60326.75
2018-07-13T22:16:40.499Z,60321.67
2018-07-13T22:19:08.683Z,60336.91
2018-07-13T22:21:36.879Z,60328.79
2018-07-13T22:24:05.175Z,60344.03
2018-07-13T22:26:33.397Z,60339.96
2018-07-13T22:29:01.507Z,60351.14
2018-07-13T22:31:29.854Z,60335.90
2018-07-13T22:33:58.027Z,60327.77
2018-07-13T22:36:26.207Z,60343.01
2018-07-13T22:38:54.378Z,60348.09
2018-07-13T22:41:22.547Z,60350.12
2018-07-13T22:43:50.719Z,60359.27
2018-07-13T22:46:19.006Z,60349.11
2018-07-13T22:48:47.419Z,60339.96
2018-07-13T22:51:15.586Z,60367.40
2018-07-13T22:53:43.754Z,60343.01
2018-07-13T22:56:11.922Z,60346.06
2018-07-13T22:58:40.092Z,60346.06
2018-07-13T23:01:08.272Z,60344.03
2018-07-13T23:03:36.444Z,60366.39
2018-07-13T23:06:04.675Z,60335.90
2018-07-13T23:08:32.894Z,60366.39
2018-07-13T23:11:01.059Z,60372.48
2018-07-13T23:13:29.322Z,60363.34
2018-07-13T23:15:57.490Z,60330.82
2018-07-13T23:18:25.680Z,60353.18
2018-07-13T23:20:53.911Z,60339.96
2018-07-13T23:23:22.091Z,60360.29
2018-07-13T23:25:50.254Z,60357.24
2018-07-13T23:28:18.411Z,60364.35
2018-07-13T23:30:46.583Z,60346.06
2018-07-13T23:33:14.754Z,60340.98
2018-07-13T23:35:42.934Z,60349.11
2018-07-13T23:38:11.107Z,60324.72
2018-07-13T23:40:39.291Z,60352.16
2018-07-13T23:43:07.472Z,60372.48
2018-07-13T23:45:35.630Z,60357.24
2018-07-13T23:48:03.827Z,60375.53
2018-07-13T23:50:32.019Z,60366.39
2018-07-13T23:53:00.196Z,60368.42
2018-07-13T23:55:28.366Z,60359.27
2018-07-13T23:57:56.542Z,60369.43
